createdAt,value
2023-05-04T00:02:04.624Z,60.70
2023-05-04T00:04:31.377Z,60.41
2023-05-04T00:06:58.109Z,60.08
2023-05-04T00:09:24.771Z,60.25
2023-05-04T00:11:51.499Z,60.12
2023-05-04T00:14:18.213Z,59.98
2023-05-04T00:16:44.887Z,60.64
2023-05-04T00:19:12.250Z,60.52
2023-05-04T00:21:38.894Z,60.17
2023-05-04T00:24:05.776Z,60.46
2023-05-04T00:26:32.442Z,60.59
2023-05-04T00:28:59.074Z,60.84
2023-05-04T00:31:25.968Z,60.93
2023-05-04T00:33:52.805Z,60.83
2023-05-04T00:36:19.484Z,60.89
2023-05-04T00:38:53.001Z,61.47
2023-05-04T00:41:20.775Z,61.57
2023-05-04T00:43:48.334Z,62.04
2023-05-04T00:46:15.488Z,63.00
2023-05-04T00:48:43.028Z,63.67
2023-05-04T00:51:12.026Z,64.41
2023-05-04T00:53:39.653Z,65.00
2023-05-04T00:56:07.925Z,65.74
2023-05-04T00:58:35.538Z,65.97
2023-05-04T01:01:03.579Z,66.84
2023-05-04T01:03:31.921Z,66.71
2023-05-04T01:06:18.110Z,66.44
2023-05-04T01:09:00.557Z,66.94
2023-05-04T01:11:41.225Z,66.75
2023-05-04T01:14:10.185Z,66.88
2023-05-04T01:16:36.900Z,67.01
2023-05-04T01:19:04.030Z,66.88
2023-05-04T01:21:31.348Z,67.44
2023-05-04T01:23:59.280Z,67.61
2023-05-04T01:26:30.000Z,67.72
2023-05-04T01:29:04.997Z,68.04
2023-05-04T01:31:35.420Z,68.04
2023-05-04T01:34:02.543Z,68.43
2023-05-04T01:36:29.489Z,68.89
2023-05-04T01:38:58.584Z,68.54
2023-05-04T01:41:26.833Z,68.58
2023-05-04T01:43:54.444Z,68.21
2023-05-04T01:46:21.450Z,68.10
2023-05-04T01:48:48.248Z,67.44
2023-05-04T01:51:15.037Z,67.36
2023-05-04T01:53:41.703Z,67.60
2023-05-04T01:56:08.456Z,67.70
2023-05-04T01:58:35.416Z,67.58
2023-05-04T02:01:02.170Z,67.52
2023-05-04T02:03:28.966Z,67.57
2023-05-04T02:05:55.695Z,67.25
2023-05-04T02:08:22.497Z,67.11
2023-05-04T02:10:49.421Z,67.49
2023-05-04T02:13:16.220Z,67.23
2023-05-04T02:15:42.942Z,67.28
2023-05-04T02:18:09.682Z,66.98
2023-05-04T02:20:36.433Z,66.74
2023-05-04T02:23:03.126Z,66.84
2023-05-04T02:25:29.851Z,66.54
2023-05-04T02:27:56.647Z,66.33
2023-05-04T02:30:23.435Z,66.33
2023-05-04T02:32:50.096Z,66.10
2023-05-04T02:35:16.857Z,66.35
2023-05-04T02:37:43.536Z,66.26
2023-05-04T02:40:10.881Z,66.16
2023-05-04T02:42:37.594Z,65.93
2023-05-04T02:45:04.618Z,66.09
2023-05-04T02:47:31.373Z,66.05
2023-05-04T02:49:58.061Z,65.85
2023-05-04T02:52:24.744Z,66.09
2023-05-04T02:54:53.108Z,65.85
2023-05-04T02:57:19.988Z,65.81
2023-05-04T02:59:46.860Z,65.94
2023-05-04T03:02:13.624Z,66.17
2023-05-04T03:04:40.322Z,66.08
2023-05-04T03:07:08.286Z,65.99
2023-05-04T03:09:35.174Z,66.13
2023-05-04T03:12:02.841Z,66.06
2023-05-04T03:14:29.628Z,66.08
2023-05-04T03:16:56.372Z,65.68
2023-05-04T03:19:23.218Z,65.72
2023-05-04T03:21:49.952Z,65.73
2023-05-04T03:24:18.273Z,65.60
2023-05-04T03:26:45.439Z,65.57
2023-05-04T03:29:12.133Z,65.57
2023-05-04T03:31:39.056Z,65.76
2023-05-04T03:34:05.741Z,66.13
2023-05-04T03:36:32.450Z,66.23
2023-05-04T03:38:59.324Z,66.95
2023-05-04T03:41:26.084Z,67.11
2023-05-04T03:43:52.844Z,67.37
2023-05-04T03:46:19.560Z,67.74
2023-05-04T03:48:46.425Z,68.09
2023-05-04T03:51:13.220Z,68.60
2023-05-04T03:53:39.892Z,68.95
2023-05-04T03:56:06.872Z,69.13
2023-05-04T03:58:33.517Z,69.51
2023-05-04T04:01:03.432Z,69.21
2023-05-04T04:03:31.098Z,69.24
2023-05-04T04:05:57.928Z,68.72
2023-05-04T04:08:24.664Z,68.46
2023-05-04T04:10:51.297Z,68.44
2023-05-04T04:13:18.078Z,68.21
2023-05-04T04:15:46.643Z,68.03
2023-05-04T04:18:13.427Z,67.70
2023-05-04T04:20:40.139Z,67.17
2023-05-04T04:23:06.800Z,67.45
2023-05-04T04:25:33.642Z,67.06
2023-05-04T04:28:00.289Z,67.04
2023-05-04T04:30:27.193Z,66.75
2023-05-04T04:32:54.902Z,66.54
2023-05-04T04:35:22.543Z,66.31
2023-05-04T04:37:49.542Z,66.04
2023-05-04T04:40:16.256Z,65.81
2023-05-04T04:42:42.951Z,65.98
2023-05-04T04:45:10.212Z,65.53
2023-05-04T04:47:36.940Z,65.64
2023-05-04T04:50:05.634Z,65.48
2023-05-04T04:52:33.474Z,65.41
2023-05-04T04:55:00.697Z,65.20
2023-05-04T04:57:31.976Z,65.24
2023-05-04T04:59:58.769Z,64.96
2023-05-04T05:02:25.540Z,64.55
2023-05-04T05:04:52.458Z,64.73
2023-05-04T05:07:19.215Z,64.52
2023-05-04T05:09:46.196Z,64.22
2023-05-04T05:12:12.851Z,64.16
2023-05-04T05:14:39.507Z,64.05
2023-05-04T05:17:06.331Z,64.10
2023-05-04T05:19:37.304Z,63.92
2023-05-04T05:22:05.048Z,63.88
2023-05-04T05:24:31.881Z,63.80
2023-05-04T05:26:59.081Z,63.86
2023-05-04T05:29:26.230Z,63.61
2023-05-04T05:31:52.896Z,63.40
2023-05-04T05:34:19.630Z,63.26
2023-05-04T05:36:46.282Z,63.31
2023-05-04T05:39:12.931Z,63.05
2023-05-04T05:41:39.606Z,62.79
2023-05-04T05:44:06.364Z,62.80
2023-05-04T05:46:33.266Z,62.81
2023-05-04T05:49:00.126Z,62.54
2023-05-04T05:51:26.788Z,62.72
2023-05-04T05:53:53.446Z,62.31
2023-05-04T05:56:20.167Z,62.54
2023-05-04T05:58:46.894Z,61.90
2023-05-04T06:01:14.336Z,61.61
2023-05-04T06:03:41.309Z,62.05
2023-05-04T06:06:08.686Z,61.66
2023-05-04T06:08:35.363Z,61.56
2023-05-04T06:11:02.092Z,61.49
2023-05-04T06:13:28.838Z,60.97
2023-05-04T06:15:55.747Z,61.13
2023-05-04T06:18:22.645Z,60.81
2023-05-04T06:20:49.425Z,60.96
2023-05-04T06:23:16.696Z,60.44
2023-05-04T06:25:43.363Z,60.27
2023-05-04T06:28:10.024Z,59.72
2023-05-04T06:30:36.777Z,59.60
2023-05-04T06:33:04.568Z,59.50
2023-05-04T06:35:31.668Z,59.48
2023-05-04T06:37:58.633Z,59.34
2023-05-04T06:40:26.655Z,59.30
2023-05-04T06:42:53.484Z,58.67
2023-05-04T06:45:20.407Z,59.17
2023-05-04T06:47:47.440Z,58.86
2023-05-04T06:50:14.521Z,58.50
2023-05-04T06:52:44.092Z,57.97
2023-05-04T06:55:11.405Z,57.99
2023-05-04T06:57:38.086Z,57.70
2023-05-04T07:00:05.450Z,56.99
2023-05-04T07:02:32.307Z,57.00
2023-05-04T07:04:58.960Z,57.19
2023-05-04T07:07:25.655Z,56.50
2023-05-04T07:09:52.364Z,56.41
2023-05-04T07:12:19.013Z,56.34
2023-05-04T07:14:45.810Z,55.77
2023-05-04T07:17:14.227Z,55.72
2023-05-04T07:19:41.236Z,55.98
2023-05-04T07:22:07.892Z,55.57
2023-05-04T07:24:34.550Z,55.96
2023-05-04T07:27:01.348Z,56.13
2023-05-04T07:29:28.049Z,56.33
2023-05-04T07:31:54.747Z,55.67
2023-05-04T07:34:25.151Z,55.91
2023-05-04T07:36:57.559Z,56.11
2023-05-04T07:39:24.220Z,54.92
2023-05-04T07:41:51.785Z,53.89
2023-05-04T07:44:18.513Z,53.26
2023-05-04T07:46:45.166Z,52.50
2023-05-04T07:49:11.800Z,51.57
2023-05-04T07:51:39.254Z,51.46
2023-05-04T07:54:06.025Z,49.92
2023-05-04T07:56:32.693Z,50.22
2023-05-04T07:58:59.429Z,50.38
2023-05-04T08:01:26.320Z,50.22
2023-05-04T08:03:53.000Z,50.21
2023-05-04T08:06:19.661Z,49.59
2023-05-04T08:08:46.598Z,49.21
2023-05-04T08:11:20.395Z,49.35
2023-05-04T08:13:48.917Z,48.96
2023-05-04T08:16:15.752Z,48.51
2023-05-04T08:18:42.572Z,48.62
2023-05-04T08:21:09.260Z,48.41
2023-05-04T08:23:35.995Z,47.98
2023-05-04T08:26:03.730Z,47.61
2023-05-04T08:28:31.263Z,47.59
2023-05-04T08:30:58.111Z,47.92
2023-05-04T08:33:24.838Z,47.55
2023-05-04T08:35:51.680Z,47.27
2023-05-04T08:38:18.334Z,46.10
2023-05-04T08:40:45.522Z,45.23
2023-05-04T08:43:12.309Z,45.69
2023-05-04T08:45:39.809Z,43.23
2023-05-04T08:48:10.312Z,43.12
2023-05-04T08:50:38.289Z,43.72
2023-05-04T08:53:12.380Z,43.75
2023-05-04T08:55:41.580Z,44.00
2023-05-04T08:58:11.006Z,44.16
2023-05-04T09:00:38.743Z,42.01
2023-05-04T09:03:10.848Z,42.59
2023-05-04T09:05:38.469Z,43.22
2023-05-04T09:08:05.797Z,43.89
2023-05-04T09:10:33.706Z,44.14
2023-05-04T09:13:00.537Z,43.89
2023-05-04T09:15:27.485Z,39.91
2023-05-04T09:18:09.931Z,41.53
2023-05-04T09:20:45.219Z,41.35
2023-05-04T09:23:13.270Z,41.92
2023-05-04T09:25:48.515Z,38.53
2023-05-04T09:28:16.611Z,37.26
2023-05-04T09:30:43.677Z,37.29
2023-05-04T09:33:13.265Z,38.50
2023-05-04T09:35:44.649Z,39.73
2023-05-04T09:38:11.413Z,39.62
2023-05-04T09:40:41.374Z,40.14
2023-05-04T09:43:09.488Z,40.51
2023-05-04T09:45:43.977Z,40.76
2023-05-04T09:48:17.678Z,40.17
2023-05-04T09:50:57.799Z,40.40
2023-05-04T09:53:29.396Z,40.13
2023-05-04T09:56:03.355Z,40.10
2023-05-04T09:58:32.255Z,40.07
2023-05-04T10:01:01.416Z,39.98
2023-05-04T10:03:28.885Z,40.24
2023-05-04T10:05:57.819Z,40.34
2023-05-04T10:08:25.086Z,39.84
2023-05-04T10:10:52.654Z,40.53
2023-05-04T10:13:19.307Z,40.52
2023-05-04T10:16:01.288Z,40.27
2023-05-04T10:19:01.676Z,40.44
2023-05-04T10:21:45.162Z,39.87
2023-05-04T10:24:26.283Z,39.73
2023-05-04T10:27:14.163Z,38.75
2023-05-04T10:29:42.256Z,39.14
2023-05-04T10:32:20.171Z,36.60
2023-05-04T10:34:47.623Z,35.20
2023-05-04T10:37:19.030Z,33.28
2023-05-04T10:39:53.874Z,33.53
2023-05-04T10:42:21.682Z,35.33
2023-05-04T10:44:53.661Z,35.82
2023-05-04T10:47:33.973Z,36.14
2023-05-04T10:50:08.517Z,36.74
2023-05-04T10:52:53.932Z,36.07
2023-05-04T10:55:21.803Z,36.01
2023-05-04T10:57:54.229Z,35.54
2023-05-04T11:00:21.591Z,34.26
2023-05-04T11:02:49.798Z,35.05
2023-05-04T11:05:21.128Z,35.29
2023-05-04T11:07:53.074Z,35.38
2023-05-04T11:10:24.679Z,34.62
2023-05-04T11:12:52.315Z,35.59
2023-05-04T11:15:19.394Z,35.69
2023-05-04T11:17:50.673Z,35.15
2023-05-04T11:20:25.483Z,35.36
2023-05-04T11:22:53.497Z,35.45
2023-05-04T11:25:30.323Z,35.83
2023-05-04T11:27:58.445Z,35.82
2023-05-04T11:30:35.349Z,35.50
2023-05-04T11:33:14.392Z,35.95
2023-05-04T11:35:43.880Z,35.95
2023-05-04T11:38:11.518Z,35.93
2023-05-04T11:40:41.207Z,36.02
2023-05-04T11:43:11.305Z,35.94
2023-05-04T11:45:40.687Z,36.26
2023-05-04T11:48:08.539Z,36.32
2023-05-04T11:50:35.645Z,35.50
2023-05-04T11:53:07.326Z,34.47
2023-05-04T11:55:34.924Z,35.65
2023-05-04T11:58:03.453Z,36.01
2023-05-04T12:00:40.465Z,35.91
2023-05-04T12:03:13.125Z,35.44
2023-05-04T12:05:47.100Z,35.36
2023-05-04T12:08:34.916Z,35.33
2023-05-04T12:11:14.084Z,35.33
2023-05-04T12:13:41.687Z,35.16
2023-05-04T12:16:13.735Z,35.14
2023-05-04T12:18:41.021Z,34.99
2023-05-04T12:21:12.758Z,35.16
2023-05-04T12:23:40.558Z,35.28
2023-05-04T12:26:10.729Z,34.90
2023-05-04T12:28:39.259Z,35.40
2023-05-04T12:31:10.284Z,35.36
2023-05-04T12:33:37.036Z,35.56
2023-05-04T12:36:06.190Z,35.13
2023-05-04T12:38:34.298Z,35.23
2023-05-04T12:41:04.287Z,35.08
2023-05-04T12:43:32.278Z,35.45
2023-05-04T12:45:59.298Z,35.86
2023-05-04T12:48:28.428Z,35.86
2023-05-04T12:50:55.472Z,35.43
2023-05-04T12:53:24.660Z,35.56
2023-05-04T12:55:51.396Z,35.49
2023-05-04T12:58:18.111Z,35.64
2023-05-04T13:00:46.146Z,35.45
2023-05-04T13:03:13.165Z,34.83
2023-05-04T13:05:40.396Z,35.33
2023-05-04T13:08:07.200Z,34.80
2023-05-04T13:10:33.893Z,34.48
2023-05-04T13:13:00.640Z,34.11
2023-05-04T13:15:28.124Z,34.25
2023-05-04T13:17:54.891Z,34.15
2023-05-04T13:20:22.705Z,33.89
2023-05-04T13:22:50.620Z,34.08
2023-05-04T13:25:17.355Z,33.35
2023-05-04T13:27:44.156Z,33.25
2023-05-04T13:30:12.029Z,32.98
2023-05-04T13:32:38.943Z,32.68
2023-05-04T13:35:06.561Z,32.52
2023-05-04T13:37:33.522Z,33.64
2023-05-04T13:40:01.755Z,33.60
2023-05-04T13:42:28.540Z,33.87
2023-05-04T13:44:55.281Z,33.64
2023-05-04T13:47:23.728Z,33.88
2023-05-04T13:49:51.036Z,33.30
2023-05-04T13:52:17.730Z,33.51
2023-05-04T13:54:44.445Z,33.53
2023-05-04T13:57:11.261Z,33.29
2023-05-04T13:59:38.004Z,32.62
2023-05-04T14:02:04.747Z,32.46
2023-05-04T14:04:31.842Z,32.21
2023-05-04T14:06:58.535Z,32.14
2023-05-04T14:09:26.114Z,32.35
2023-05-04T14:11:53.619Z,32.41
2023-05-04T14:14:21.871Z,32.29
2023-05-04T14:16:48.607Z,32.44
2023-05-04T14:19:15.338Z,32.73
2023-05-04T14:21:42.041Z,32.76
2023-05-04T14:24:08.846Z,32.23
2023-05-04T14:26:35.598Z,32.54
2023-05-04T14:29:02.692Z,32.27
2023-05-04T14:31:29.991Z,32.54
2023-05-04T14:33:57.032Z,32.31
2023-05-04T14:36:23.857Z,31.74
2023-05-04T14:38:50.709Z,31.99
2023-05-04T14:41:18.164Z,31.75
2023-05-04T14:43:44.829Z,31.68
2023-05-04T14:46:13.128Z,31.09
2023-05-04T14:48:40.032Z,31.21
2023-05-04T14:51:06.845Z,31.22
2023-05-04T14:53:36.895Z,31.52
2023-05-04T14:56:04.781Z,31.62
2023-05-04T14:58:31.462Z,31.68
2023-05-04T15:00:58.136Z,31.71
2023-05-04T15:03:26.066Z,31.44
2023-05-04T15:05:52.925Z,31.59
2023-05-04T15:08:19.669Z,31.99
2023-05-04T15:10:46.428Z,31.88
2023-05-04T15:13:15.775Z,31.87
2023-05-04T15:15:42.816Z,31.89
2023-05-04T15:18:09.942Z,31.79
2023-05-04T15:20:38.461Z,31.65
2023-05-04T15:23:10.820Z,31.56
2023-05-04T15:25:41.157Z,31.60
2023-05-04T15:28:12.004Z,31.51
2023-05-04T15:30:39.908Z,31.26
2023-05-04T15:33:07.468Z,31.30
2023-05-04T15:35:36.428Z,31.23
2023-05-04T15:38:03.542Z,29.94
2023-05-04T15:40:30.563Z,30.15
2023-05-04T15:42:57.253Z,30.89
2023-05-04T15:45:23.979Z,31.11
2023-05-04T15:47:51.081Z,30.96
2023-05-04T15:50:17.761Z,31.03
2023-05-04T15:52:44.462Z,31.15
2023-05-04T15:55:24.554Z,30.96
2023-05-04T15:57:52.936Z,30.71
2023-05-04T16:00:20.933Z,30.63
2023-05-04T16:02:47.802Z,30.88
2023-05-04T16:05:14.763Z,30.85
2023-05-04T16:07:41.692Z,30.47
2023-05-04T16:10:09.446Z,30.63
2023-05-04T16:12:36.612Z,30.32
2023-05-04T16:15:03.951Z,30.42
2023-05-04T16:17:35.137Z,30.30
2023-05-04T16:20:03.344Z,29.96
2023-05-04T16:22:31.193Z,30.08
2023-05-04T16:24:58.126Z,29.77
2023-05-04T16:27:26.945Z,29.59
2023-05-04T16:29:53.915Z,29.55
2023-05-04T16:32:21.252Z,29.76
2023-05-04T16:34:48.166Z,29.54
2023-05-04T16:37:16.097Z,29.07
2023-05-04T16:39:42.773Z,29.16
2023-05-04T16:42:10.059Z,28.94
2023-05-04T16:44:36.705Z,28.85
2023-05-04T16:47:03.495Z,28.79
2023-05-04T16:49:30.433Z,28.92
2023-05-04T16:51:57.417Z,28.67
2023-05-04T16:54:24.332Z,28.66
2023-05-04T16:56:51.191Z,28.58
2023-05-04T16:59:18.094Z,28.64
2023-05-04T17:01:44.926Z,28.77
2023-05-04T17:04:11.780Z,28.61
2023-05-04T17:06:38.509Z,28.77
2023-05-04T17:09:05.987Z,29.23
2023-05-04T17:11:33.002Z,29.48
2023-05-04T17:14:01.221Z,29.28
2023-05-04T17:16:28.080Z,29.63
2023-05-04T17:18:54.792Z,29.49
2023-05-04T17:21:21.427Z,29.85
2023-05-04T17:23:48.080Z,30.28
2023-05-04T17:26:14.846Z,30.63
2023-05-04T17:28:41.640Z,31.12
2023-05-04T17:31:14.670Z,31.78
2023-05-04T17:33:41.344Z,32.27
2023-05-04T17:36:11.169Z,32.94
2023-05-04T17:38:39.221Z,33.50
2023-05-04T17:41:06.197Z,33.53
2023-05-04T17:43:34.141Z,34.39
2023-05-04T17:46:02.180Z,34.73
2023-05-04T17:48:31.347Z,35.07
2023-05-04T17:50:58.695Z,35.15
2023-05-04T17:53:28.769Z,35.33
2023-05-04T17:55:55.448Z,35.32
2023-05-04T17:58:22.121Z,35.94
2023-05-04T18:00:50.541Z,35.77
2023-05-04T18:03:19.082Z,36.17
2023-05-04T18:05:48.966Z,35.54
2023-05-04T18:08:15.717Z,36.21
2023-05-04T18:10:42.401Z,36.27
2023-05-04T18:13:09.096Z,36.29
2023-05-04T18:15:35.865Z,36.23
2023-05-04T18:18:02.888Z,36.58
2023-05-04T18:20:29.591Z,36.90
2023-05-04T18:22:56.930Z,37.20
2023-05-04T18:25:23.892Z,37.67
2023-05-04T18:27:50.670Z,37.79
2023-05-04T18:30:17.588Z,37.35
2023-05-04T18:32:44.320Z,37.91
2023-05-04T18:35:11.059Z,38.12
2023-05-04T18:37:37.806Z,38.40
2023-05-04T18:40:05.316Z,38.64
2023-05-04T18:42:32.429Z,38.43
2023-05-04T18:44:59.258Z,38.67
2023-05-04T18:47:26.069Z,38.76
2023-05-04T18:49:54.702Z,38.80
2023-05-04T18:52:21.850Z,39.73
2023-05-04T18:54:49.558Z,39.27
2023-05-04T18:57:16.674Z,39.13
2023-05-04T18:59:43.419Z,39.66
2023-05-04T19:02:10.278Z,39.79
2023-05-04T19:04:36.965Z,39.93
2023-05-04T19:07:03.819Z,39.98
2023-05-04T19:09:30.529Z,39.83
2023-05-04T19:11:57.613Z,39.88
2023-05-04T19:14:25.418Z,40.43
2023-05-04T19:16:52.084Z,40.64
2023-05-04T19:19:18.813Z,40.75
2023-05-04T19:21:45.692Z,40.66
2023-05-04T19:24:12.370Z,40.57
2023-05-04T19:26:39.824Z,41.11
2023-05-04T19:29:06.606Z,40.93
2023-05-04T19:31:33.427Z,41.09
2023-05-04T19:34:00.153Z,41.23
2023-05-04T19:36:27.522Z,41.24
2023-05-04T19:38:54.386Z,41.09
2023-05-04T19:41:21.156Z,41.71
2023-05-04T19:43:47.941Z,41.51
2023-05-04T19:46:14.776Z,41.89
2023-05-04T19:48:41.971Z,42.03
2023-05-04T19:51:08.687Z,41.95
2023-05-04T19:53:35.364Z,41.74
2023-05-04T19:56:02.109Z,41.97
2023-05-04T19:58:30.924Z,42.09
2023-05-04T20:00:57.772Z,42.06
2023-05-04T20:03:24.703Z,41.68
2023-05-04T20:05:51.943Z,41.73
2023-05-04T20:08:19.211Z,41.88
2023-05-04T20:10:45.991Z,41.76
2023-05-04T20:13:12.898Z,42.34
2023-05-04T20:15:39.651Z,42.28
2023-05-04T20:18:06.569Z,42.12
2023-05-04T20:20:33.344Z,42.06
2023-05-04T20:23:00.031Z,42.20
2023-05-04T20:25:27.714Z,42.71
2023-05-04T20:27:54.652Z,42.66
2023-05-04T20:30:21.602Z,42.92
2023-05-04T20:32:49.151Z,43.02
2023-05-04T20:35:16.757Z,43.10
2023-05-04T20:37:43.431Z,42.85
2023-05-04T20:40:10.654Z,43.21
2023-05-04T20:42:37.356Z,43.15
2023-05-04T20:45:05.689Z,43.76
2023-05-04T20:47:32.612Z,43.57
2023-05-04T20:49:59.292Z,43.61
2023-05-04T20:52:26.258Z,43.43
2023-05-04T20:54:53.129Z,43.58
2023-05-04T20:57:19.852Z,43.54
2023-05-04T20:59:46.585Z,43.98
2023-05-04T21:02:13.262Z,43.81
2023-05-04T21:04:40.100Z,44.13
2023-05-04T21:07:06.948Z,43.65
2023-05-04T21:09:33.683Z,44.14
2023-05-04T21:12:00.378Z,44.02
2023-05-04T21:14:27.094Z,44.28
2023-05-04T21:16:53.922Z,44.07
2023-05-04T21:19:20.750Z,44.02
2023-05-04T21:21:47.408Z,44.48
2023-05-04T21:24:14.432Z,44.79
2023-05-04T21:26:41.752Z,44.59
2023-05-04T21:29:12.980Z,44.83
2023-05-04T21:31:39.851Z,45.21
2023-05-04T21:34:07.055Z,44.86
2023-05-04T21:36:33.847Z,45.26
2023-05-04T21:39:00.514Z,45.23
2023-05-04T21:41:27.170Z,45.13
2023-05-04T21:43:53.866Z,45.59
2023-05-04T21:46:20.606Z,45.86
2023-05-04T21:48:47.691Z,46.18
2023-05-04T21:51:14.543Z,46.33
2023-05-04T21:53:43.705Z,46.36
2023-05-04T21:56:11.040Z,46.45
2023-05-04T21:58:41.210Z,46.36
2023-05-04T22:01:08.586Z,46.52
2023-05-04T22:03:35.978Z,46.66
2023-05-04T22:06:02.762Z,46.48
2023-05-04T22:08:29.874Z,46.40
2023-05-04T22:10:57.684Z,46.73
2023-05-04T22:13:25.415Z,46.61
2023-05-04T22:15:53.607Z,46.83
2023-05-04T22:18:20.967Z,46.82
2023-05-04T22:20:48.027Z,46.43
2023-05-04T22:23:14.999Z,46.68
2023-05-04T22:25:42.201Z,46.58
2023-05-04T22:28:08.941Z,46.72
2023-05-04T22:30:35.754Z,46.77
2023-05-04T22:33:02.957Z,47.19
2023-05-04T22:35:31.466Z,47.07
2023-05-04T22:37:59.411Z,47.02
2023-05-04T22:40:26.139Z,46.99
2023-05-04T22:42:52.811Z,46.89
2023-05-04T22:45:19.593Z,47.12
2023-05-04T22:47:47.064Z,47.05
2023-05-04T22:50:14.283Z,47.07
2023-05-04T22:52:41.402Z,47.12
2023-05-04T22:55:08.992Z,47.17
2023-05-04T22:57:35.926Z,47.32
2023-05-04T23:00:08.377Z,47.73
2023-05-04T23:02:35.929Z,47.59
2023-05-04T23:05:02.918Z,47.83
2023-05-04T23:07:29.783Z,47.57
2023-05-04T23:09:56.460Z,47.91
2023-05-04T23:12:23.317Z,47.78
2023-05-04T23:14:52.424Z,47.86
2023-05-04T23:17:19.331Z,48.14
2023-05-04T23:19:46.141Z,48.18
2023-05-04T23:22:13.251Z,48.44
2023-05-04T23:24:40.203Z,48.36
2023-05-04T23:27:07.055Z,48.57
2023-05-04T23:29:33.997Z,48.22
2023-05-04T23:32:00.788Z,48.61
2023-05-04T23:34:27.520Z,48.64
2023-05-04T23:36:54.755Z,48.62
2023-05-04T23:39:21.439Z,48.56
2023-05-04T23:41:48.132Z,48.72
2023-05-04T23:44:14.871Z,48.58
2023-05-04T23:46:41.722Z,49.06
2023-05-04T23:49:08.516Z,48.95
2023-05-04T23:51:35.194Z,48.92
2023-05-04T23:54:01.869Z,48.90
2023-05-04T23:56:28.780Z,48.93
2023-05-04T23:58:55.460Z,49.30
